createdAt,value
2018-11-02T00:02:20.598Z,19.10
2018-11-02T00:04:49.378Z,19.10
2018-11-02T00:07:17.202Z,19.10
2018-11-02T00:09:45.864Z,19.00
2018-11-02T00:12:15.488Z,19.00
2018-11-02T00:14:44.947Z,19.00
2018-11-02T00:17:12.785Z,19.00
2018-11-02T00:19:40.654Z,19.00
2018-11-02T00:22:08.585Z,19.00
2018-11-02T00:24:37.435Z,19.00
2018-11-02T00:27:06.187Z,19.00
2018-11-02T00:29:34.918Z,19.00
2018-11-02T00:32:03.784Z,19.00
2018-11-02T00:34:32.604Z,19.00
2018-11-02T00:37:00.446Z,19.00
2018-11-02T00:39:28.383Z,19.00
2018-11-02T00:41:57.469Z,19.00
2018-11-02T00:44:25.358Z,18.90
2018-11-02T00:46:54.217Z,19.00
2018-11-02T00:49:23.105Z,19.00
2018-11-02T00:51:50.954Z,19.00
2018-11-02T00:54:19.221Z,19.00
2018-11-02T00:56:47.085Z,19.00
2018-11-02T00:59:15.948Z,19.00
2018-11-02T01:01:45.979Z,19.00
2018-11-02T01:04:15.616Z,19.00
2018-11-02T01:06:44.432Z,19.00
2018-11-02T01:09:12.312Z,18.90
2018-11-02T01:11:40.369Z,18.90
2018-11-02T01:14:08.233Z,18.90
2018-11-02T01:16:37.043Z,18.90
2018-11-02T01:19:06.039Z,18.90
2018-11-02T01:21:35.765Z,18.90
2018-11-02T01:24:03.984Z,18.90
2018-11-02T01:26:32.639Z,18.90
2018-11-02T01:29:00.744Z,18.90
2018-11-02T01:31:28.657Z,18.90
2018-11-02T01:33:56.672Z,18.90
2018-11-02T01:36:24.635Z,18.80
2018-11-02T01:38:52.477Z,18.80
2018-11-02T01:41:20.336Z,18.90
2018-11-02T01:43:48.170Z,18.90
2018-11-02T01:46:17.336Z,18.90
2018-11-02T01:48:46.472Z,18.90
2018-11-02T01:51:15.054Z,18.90
2018-11-02T01:53:44.261Z,18.90
2018-11-02T01:56:12.110Z,18.90
2018-11-02T01:58:39.916Z,18.80
2018-11-02T02:01:07.725Z,18.80
2018-11-02T02:03:35.610Z,18.80
2018-11-02T02:06:03.576Z,18.80
2018-11-02T02:08:31.462Z,18.90
2018-11-02T02:10:59.343Z,18.90
2018-11-02T02:13:27.360Z,18.90
2018-11-02T02:15:55.023Z,18.90
2018-11-02T02:18:22.846Z,18.90
2018-11-02T02:20:51.577Z,18.80
2018-11-02T02:23:19.405Z,18.80
2018-11-02T02:25:47.285Z,18.80
2018-11-02T02:28:15.895Z,18.80
2018-11-02T02:30:44.811Z,18.80
2018-11-02T02:33:13.699Z,18.80
2018-11-02T02:35:41.863Z,18.90
2018-11-02T02:38:09.932Z,18.90
2018-11-02T02:40:37.771Z,18.90
2018-11-02T02:43:06.548Z,18.90
2018-11-02T02:45:35.491Z,18.90
2018-11-02T02:48:03.356Z,18.80
2018-11-02T02:50:31.217Z,18.80
2018-11-02T02:52:59.068Z,18.80
2018-11-02T02:55:27.149Z,18.80
2018-11-02T02:57:55.163Z,18.80
2018-11-02T03:00:23.016Z,18.90
2018-11-02T03:02:50.853Z,18.90
2018-11-02T03:05:18.692Z,19.00
2018-11-02T03:07:46.529Z,19.00
2018-11-02T03:10:15.268Z,19.00
2018-11-02T03:12:43.612Z,19.00
2018-11-02T03:15:11.500Z,19.00
2018-11-02T03:17:39.354Z,19.00
2018-11-02T03:20:08.063Z,18.90
2018-11-02T03:22:36.075Z,18.90
2018-11-02T03:25:04.078Z,18.90
2018-11-02T03:27:32.582Z,18.90
2018-11-02T03:30:00.599Z,18.90
2018-11-02T03:32:28.428Z,18.90
2018-11-02T03:34:56.264Z,18.90
2018-11-02T03:37:24.103Z,18.90
2018-11-02T03:39:52.989Z,18.90
2018-11-02T03:42:20.826Z,18.90
2018-11-02T03:44:49.728Z,18.90
2018-11-02T03:47:17.582Z,18.90
2018-11-02T03:49:45.649Z,18.90
2018-11-02T03:52:14.089Z,18.90
2018-11-02T03:54:44.188Z,18.90
2018-11-02T03:57:13.528Z,18.90
2018-11-02T03:59:42.289Z,18.90
2018-11-02T04:02:11.291Z,18.90
2018-11-02T04:04:39.150Z,18.90
2018-11-02T04:07:07.886Z,18.90
2018-11-02T04:09:36.788Z,18.90
2018-11-02T04:12:05.730Z,18.90
2018-11-02T04:14:34.640Z,18.90
2018-11-02T04:17:02.524Z,18.90
2018-11-02T04:19:31.415Z,18.80
2018-11-02T04:21:59.249Z,18.80
2018-11-02T04:24:28.036Z,18.80
2018-11-02T04:26:55.871Z,18.80
2018-11-02T04:29:24.791Z,18.90
2018-11-02T04:31:53.528Z,18.80
2018-11-02T04:34:22.519Z,18.80
2018-11-02T04:36:51.399Z,18.80
2018-11-02T04:39:20.138Z,18.80
2018-11-02T04:41:48.910Z,18.80
2018-11-02T04:44:17.635Z,18.80
2018-11-02T04:46:46.403Z,18.80
2018-11-02T04:49:16.358Z,18.80
2018-11-02T04:51:46.368Z,18.80
2018-11-02T04:54:15.253Z,18.80
2018-11-02T04:56:44.463Z,18.80
2018-11-02T04:59:13.290Z,18.80
2018-11-02T05:01:42.218Z,18.80
2018-11-02T05:04:11.008Z,18.80
2018-11-02T05:06:39.917Z,18.80
2018-11-02T05:09:08.919Z,18.80
2018-11-02T05:11:36.947Z,18.80
2018-11-02T05:14:06.107Z,18.70
2018-11-02T05:16:34.964Z,18.70
2018-11-02T05:19:03.678Z,18.70
2018-11-02T05:21:31.514Z,18.70
2018-11-02T05:23:59.348Z,18.70
2018-11-02T05:26:27.791Z,18.70
2018-11-02T05:28:56.544Z,18.80
2018-11-02T05:31:24.754Z,18.80
2018-11-02T05:33:53.650Z,18.70
2018-11-02T05:36:22.365Z,18.70
2018-11-02T05:38:51.191Z,18.80
2018-11-02T05:41:20.083Z,18.80
2018-11-02T05:43:48.967Z,18.80
2018-11-02T05:46:17.948Z,18.80
2018-11-02T05:48:46.805Z,18.80
2018-11-02T05:51:15.447Z,18.90
2018-11-02T05:53:45.140Z,18.90
2018-11-02T05:56:14.799Z,19.00
2018-11-02T05:58:44.260Z,19.00
2018-11-02T06:01:12.138Z,19.00
2018-11-02T06:03:41.170Z,19.00
2018-11-02T06:06:09.145Z,19.00
2018-11-02T06:08:37.894Z,19.00
2018-11-02T06:11:06.672Z,19.00
2018-11-02T06:13:35.442Z,19.00
2018-11-02T06:16:04.303Z,19.00
2018-11-02T06:18:33.130Z,19.00
2018-11-02T06:21:01.904Z,18.90
2018-11-02T06:23:30.703Z,18.90
2018-11-02T06:25:59.590Z,18.90
2018-11-02T06:28:28.019Z,18.90
2018-11-02T06:30:56.887Z,18.90
2018-11-02T06:33:25.625Z,18.90
2018-11-02T06:35:54.375Z,18.90
2018-11-02T06:38:22.221Z,18.90
2018-11-02T06:40:50.066Z,18.90
2018-11-02T06:43:18.810Z,18.90
2018-11-02T06:45:47.694Z,18.90
2018-11-02T06:48:16.540Z,18.90
2018-11-02T06:50:46.441Z,18.90
2018-11-02T06:53:16.328Z,18.90
2018-11-02T06:55:45.707Z,18.90
2018-11-02T06:58:14.426Z,18.90
2018-11-02T07:00:42.303Z,18.80
2018-11-02T07:03:10.313Z,18.80
2018-11-02T07:05:38.368Z,18.80
2018-11-02T07:08:06.598Z,18.80
2018-11-02T07:10:35.461Z,18.80
2018-11-02T07:13:03.523Z,18.80
2018-11-02T07:15:31.425Z,18.80
2018-11-02T07:18:00.211Z,18.80
2018-11-02T07:20:28.229Z,18.90
2018-11-02T07:22:57.074Z,18.80
2018-11-02T07:25:26.132Z,18.80
2018-11-02T07:27:54.142Z,18.80
2018-11-02T07:30:23.276Z,18.80
2018-11-02T07:32:51.350Z,18.80
2018-11-02T07:35:19.405Z,18.80
2018-11-02T07:37:47.456Z,18.80
2018-11-02T07:40:23.670Z,18.80
2018-11-02T07:42:51.715Z,18.80
2018-11-02T07:45:19.750Z,18.80
2018-11-02T07:47:47.821Z,18.90
2018-11-02T07:50:16.019Z,18.90
2018-11-02T07:52:44.315Z,19.00
2018-11-02T07:55:14.925Z,19.00
2018-11-02T07:57:43.387Z,19.00
2018-11-02T08:00:14.824Z,19.00
2018-11-02T08:02:44.949Z,19.00
2018-11-02T08:05:14.715Z,19.00
2018-11-02T08:07:43.710Z,19.00
2018-11-02T08:10:12.626Z,19.00
2018-11-02T08:12:41.547Z,19.00
2018-11-02T08:15:10.262Z,19.00
2018-11-02T08:17:39.366Z,19.00
2018-11-02T08:20:07.555Z,19.00
2018-11-02T08:22:35.530Z,19.00
2018-11-02T08:25:04.689Z,19.00
2018-11-02T08:27:32.662Z,19.00
2018-11-02T08:30:01.657Z,19.00
2018-11-02T08:32:30.661Z,19.00
2018-11-02T08:34:58.653Z,19.00
2018-11-02T08:37:26.865Z,18.90
2018-11-02T08:39:54.976Z,18.90
2018-11-02T08:42:22.975Z,18.90
2018-11-02T08:44:51.072Z,18.90
2018-11-02T08:47:19.138Z,19.00
2018-11-02T08:49:47.335Z,18.80
2018-11-02T08:52:17.297Z,18.70
2018-11-02T08:54:46.287Z,18.60
2018-11-02T08:57:15.597Z,18.60
2018-11-02T08:59:44.444Z,18.50
2018-11-02T09:02:14.404Z,18.50
2018-11-02T09:04:42.441Z,18.50
2018-11-02T09:07:10.592Z,18.60
2018-11-02T09:09:39.304Z,18.70
2018-11-02T09:12:08.163Z,18.70
2018-11-02T09:14:36.092Z,18.70
2018-11-02T09:17:03.958Z,18.70
2018-11-02T09:19:32.154Z,18.70
2018-11-02T09:21:59.943Z,18.70
2018-11-02T09:24:27.821Z,18.70
2018-11-02T09:26:55.827Z,18.70
2018-11-02T09:29:23.719Z,18.70
2018-11-02T09:31:51.572Z,18.70
2018-11-02T09:34:19.404Z,18.80
2018-11-02T09:36:47.520Z,18.80
2018-11-02T09:39:16.830Z,18.80
2018-11-02T09:41:45.493Z,18.80
2018-11-02T09:44:14.195Z,18.80
2018-11-02T09:46:42.133Z,18.90
2018-11-02T09:49:10.059Z,18.90
2018-11-02T09:51:37.996Z,18.80
2018-11-02T09:54:05.871Z,18.70
2018-11-02T09:56:35.089Z,18.60
2018-11-02T09:59:04.348Z,18.60
2018-11-02T10:01:32.227Z,18.50
2018-11-02T10:04:01.817Z,18.50
2018-11-02T10:06:30.760Z,18.40
2018-11-02T10:08:59.612Z,18.40
2018-11-02T10:11:28.385Z,18.30
2018-11-02T10:13:56.354Z,18.30
2018-11-02T10:16:25.235Z,18.30
2018-11-02T10:18:53.099Z,18.30
2018-11-02T10:21:21.999Z,18.30
2018-11-02T10:23:51.013Z,18.30
2018-11-02T10:26:19.754Z,18.30
2018-11-02T10:28:48.604Z,18.40
2018-11-02T10:31:16.613Z,18.30
2018-11-02T10:33:46.369Z,18.30
2018-11-02T10:36:16.209Z,18.30
2018-11-02T10:38:45.076Z,18.30
2018-11-02T10:41:15.131Z,18.30
2018-11-02T10:43:44.359Z,18.30
2018-11-02T10:46:13.454Z,18.30
2018-11-02T10:48:42.393Z,18.30
2018-11-02T10:51:11.637Z,18.30
2018-11-02T10:53:39.560Z,18.40
2018-11-02T10:56:08.478Z,18.50
2018-11-02T10:58:36.334Z,18.40
2018-11-02T11:01:09.881Z,18.40
2018-11-02T11:03:37.664Z,18.40
2018-11-02T11:06:05.690Z,18.40
2018-11-02T11:08:33.554Z,18.40
2018-11-02T11:11:01.431Z,18.40
2018-11-02T11:13:30.767Z,18.40
2018-11-02T11:15:59.330Z,18.40
2018-11-02T11:18:27.235Z,18.50
2018-11-02T11:20:55.139Z,18.60
2018-11-02T11:23:23.058Z,18.60
2018-11-02T11:25:50.948Z,18.60
2018-11-02T11:28:19.273Z,18.70
2018-11-02T11:30:47.180Z,18.80
2018-11-02T11:33:15.922Z,18.90
2018-11-02T11:35:45.182Z,18.90
2018-11-02T11:38:19.489Z,18.90
2018-11-02T11:40:48.021Z,18.90
2018-11-02T11:43:15.933Z,18.90
2018-11-02T11:45:46.140Z,18.90
2018-11-02T11:48:15.715Z,18.90
2018-11-02T11:50:45.573Z,18.90
2018-11-02T11:53:14.227Z,18.90
2018-11-02T11:55:42.315Z,18.90
2018-11-02T11:58:10.202Z,18.90
2018-11-02T12:00:39.650Z,18.90
2018-11-02T12:03:07.546Z,18.90
2018-11-02T12:05:35.445Z,18.90
2018-11-02T12:08:04.348Z,18.90
2018-11-02T12:10:33.162Z,18.90
2018-11-02T12:13:01.012Z,19.00
2018-11-02T12:15:30.978Z,18.90
2018-11-02T12:17:58.993Z,18.90
2018-11-02T12:20:28.650Z,18.90
2018-11-02T12:22:58.354Z,18.90
2018-11-02T12:25:27.316Z,18.90
2018-11-02T12:27:56.252Z,18.90
2018-11-02T12:30:24.150Z,18.90
2018-11-02T12:32:51.985Z,18.80
2018-11-02T12:35:20.402Z,18.80
2018-11-02T12:37:48.468Z,18.80
2018-11-02T12:40:17.738Z,18.70
2018-11-02T12:42:46.579Z,18.70
2018-11-02T12:45:15.583Z,18.70
2018-11-02T12:47:45.979Z,18.70
2018-11-02T12:50:18.754Z,18.70
2018-11-02T12:52:55.349Z,18.70
2018-11-02T12:55:23.516Z,18.70
2018-11-02T12:57:52.369Z,18.70
2018-11-02T13:00:22.884Z,18.80
2018-11-02T13:02:51.495Z,18.80
2018-11-02T13:05:19.482Z,18.70
2018-11-02T13:07:48.320Z,18.80
2018-11-02T13:10:19.164Z,18.90
2018-11-02T13:12:47.140Z,18.90
2018-11-02T13:15:17.957Z,18.80
2018-11-02T13:17:48.899Z,18.70
2018-11-02T13:20:16.985Z,18.70
2018-11-02T13:22:46.600Z,18.70
2018-11-02T13:25:17.725Z,18.70
2018-11-02T13:27:48.941Z,18.70
2018-11-02T13:30:17.930Z,18.70
2018-11-02T13:32:45.865Z,18.60
2018-11-02T13:35:15.411Z,18.60
2018-11-02T13:37:44.499Z,18.50
2018-11-02T13:40:14.566Z,18.50
2018-11-02T13:42:42.894Z,18.50
2018-11-02T13:45:16.958Z,18.60
2018-11-02T13:47:45.979Z,18.70
2018-11-02T13:50:15.435Z,18.70
2018-11-02T13:52:44.739Z,18.70
2018-11-02T13:55:14.549Z,18.70
2018-11-02T13:57:44.416Z,18.80
2018-11-02T14:00:14.682Z,18.90
2018-11-02T14:02:42.493Z,18.90
2018-11-02T14:05:14.052Z,18.90
2018-11-02T14:07:44.918Z,18.90
2018-11-02T14:10:14.397Z,18.90
2018-11-02T14:12:44.599Z,18.90
2018-11-02T14:15:14.990Z,18.80
2018-11-02T14:17:43.614Z,18.90
2018-11-02T14:20:15.840Z,18.90
2018-11-02T14:22:45.257Z,18.90
2018-11-02T14:25:16.756Z,18.90
2018-11-02T14:27:45.866Z,18.80
2018-11-02T14:30:16.768Z,18.80
2018-11-02T14:32:46.988Z,18.70
2018-11-02T14:35:16.342Z,18.70
2018-11-02T14:37:46.411Z,18.70
2018-11-02T14:40:14.866Z,18.60
2018-11-02T14:42:45.003Z,18.70
2018-11-02T14:45:15.009Z,18.70
2018-11-02T14:47:44.869Z,18.70
2018-11-02T14:50:14.967Z,18.70
2018-11-02T14:52:44.498Z,18.90
2018-11-02T14:55:12.363Z,18.90
2018-11-02T14:57:41.165Z,19.00
2018-11-02T15:00:11.812Z,19.00
2018-11-02T15:02:41.129Z,19.00
2018-11-02T15:05:09.603Z,19.00
2018-11-02T15:07:38.330Z,19.00
2018-11-02T15:10:07.678Z,19.10
2018-11-02T15:12:36.717Z,19.10
2018-11-02T15:15:04.997Z,19.10
2018-11-02T15:17:34.401Z,19.10
2018-11-02T15:20:03.100Z,19.10
2018-11-02T15:22:30.984Z,19.10
2018-11-02T15:24:59.018Z,19.10
2018-11-02T15:27:27.776Z,19.10
2018-11-02T15:29:55.696Z,19.10
2018-11-02T15:32:24.175Z,19.10
2018-11-02T15:34:52.075Z,19.10
2018-11-02T15:37:21.002Z,19.10
2018-11-02T15:39:48.879Z,19.10
2018-11-02T15:42:17.692Z,19.10
2018-11-02T15:44:46.646Z,19.10
2018-11-02T15:47:16.333Z,19.20
2018-11-02T15:49:45.302Z,19.20
2018-11-02T15:52:13.164Z,19.20
2018-11-02T15:54:40.988Z,19.10
2018-11-02T15:57:08.969Z,19.10
2018-11-02T15:59:36.885Z,19.10
2018-11-02T16:02:04.897Z,19.10
2018-11-02T16:04:32.734Z,19.10
2018-11-02T16:07:00.663Z,19.10
2018-11-02T16:09:28.498Z,19.20
2018-11-02T16:11:56.349Z,19.30
2018-11-02T16:14:24.236Z,19.30
2018-11-02T16:16:52.067Z,19.40
2018-11-02T16:19:20.081Z,19.40
2018-11-02T16:21:47.951Z,19.30
2018-11-02T16:24:15.789Z,19.30
2018-11-02T16:26:44.750Z,19.30
2018-11-02T16:29:12.601Z,19.30
2018-11-02T16:31:40.633Z,19.30
2018-11-02T16:34:08.501Z,19.30
2018-11-02T16:36:36.356Z,19.30
2018-11-02T16:39:06.761Z,19.30
2018-11-02T16:41:34.620Z,19.30
2018-11-02T16:44:02.538Z,19.30
2018-11-02T16:46:30.379Z,19.30
2018-11-02T16:48:59.334Z,19.30
2018-11-02T16:51:27.190Z,19.30
2018-11-02T16:53:55.065Z,19.30
2018-11-02T16:56:23.939Z,19.20
2018-11-02T16:58:51.954Z,19.20
2018-11-02T17:01:21.066Z,19.20
2018-11-02T17:03:48.930Z,19.20
2018-11-02T17:06:17.473Z,19.20
2018-11-02T17:08:45.843Z,19.20
2018-11-02T17:11:14.135Z,19.20
2018-11-02T17:13:41.981Z,19.20
2018-11-02T17:16:09.827Z,19.20
2018-11-02T17:18:37.680Z,19.20
2018-11-02T17:21:05.658Z,19.20
2018-11-02T17:23:34.392Z,19.20
2018-11-02T17:26:02.273Z,19.20
2018-11-02T17:28:30.131Z,19.20
2018-11-02T17:30:59.050Z,19.20
2018-11-02T17:33:27.802Z,19.20
2018-11-02T17:35:55.709Z,19.20
2018-11-02T17:38:23.561Z,19.20
2018-11-02T17:40:52.608Z,19.20
2018-11-02T17:43:20.461Z,19.10
2018-11-02T17:45:49.394Z,19.10
2018-11-02T17:48:17.255Z,19.10
2018-11-02T17:50:45.601Z,19.10
2018-11-02T17:53:14.950Z,19.10
2018-11-02T17:55:44.052Z,19.10
2018-11-02T17:58:12.793Z,19.10
2018-11-02T18:00:41.601Z,19.20
2018-11-02T18:03:10.356Z,19.10
2018-11-02T18:05:39.091Z,19.10
2018-11-02T18:08:06.993Z,19.10
2018-11-02T18:10:35.996Z,19.10
2018-11-02T18:13:05.098Z,19.10
2018-11-02T18:15:32.936Z,19.10
2018-11-02T18:18:00.771Z,19.20
2018-11-02T18:20:29.520Z,19.20
2018-11-02T18:22:57.349Z,19.30
2018-11-02T18:25:25.198Z,19.30
2018-11-02T18:27:53.965Z,19.30
2018-11-02T18:30:21.802Z,19.30
2018-11-02T18:32:49.659Z,19.30
2018-11-02T18:35:18.463Z,19.30
2018-11-02T18:37:46.327Z,19.30
2018-11-02T18:40:15.188Z,19.30
2018-11-02T18:42:44.530Z,19.30
2018-11-02T18:45:15.158Z,19.20
2018-11-02T18:47:45.715Z,19.20
2018-11-02T18:50:16.944Z,19.20
2018-11-02T18:52:46.246Z,19.20
2018-11-02T18:55:18.312Z,19.20
2018-11-02T18:57:46.270Z,19.20
2018-11-02T19:00:15.131Z,19.20
2018-11-02T19:02:44.667Z,19.20
2018-11-02T19:05:14.877Z,19.20
2018-11-02T19:07:44.822Z,19.20
2018-11-02T19:10:13.802Z,19.20
2018-11-02T19:12:42.309Z,19.20
2018-11-02T19:15:13.590Z,19.20
2018-11-02T19:17:42.574Z,19.20
2018-11-02T19:20:11.301Z,19.10
2018-11-02T19:22:40.065Z,19.10
2018-11-02T19:25:09.894Z,19.20
2018-11-02T19:27:37.810Z,19.10
2018-11-02T19:30:06.500Z,19.10
2018-11-02T19:32:35.194Z,19.10
2018-11-02T19:35:04.259Z,19.10
2018-11-02T19:37:32.888Z,19.20
2018-11-02T19:40:00.782Z,19.20
2018-11-02T19:42:29.533Z,19.30
2018-11-02T19:44:58.025Z,19.30
2018-11-02T19:47:32.244Z,19.40
2018-11-02T19:50:01.002Z,19.40
2018-11-02T19:52:28.871Z,19.30
2018-11-02T19:54:57.625Z,19.30
2018-11-02T19:57:25.871Z,19.30
2018-11-02T19:59:53.756Z,19.30
2018-11-02T20:02:21.664Z,19.30
2018-11-02T20:04:49.507Z,19.30
2018-11-02T20:07:17.441Z,19.30
2018-11-02T20:09:45.521Z,19.30
2018-11-02T20:12:14.221Z,19.30
2018-11-02T20:14:43.384Z,19.30
2018-11-02T20:17:11.239Z,19.30
2018-11-02T20:19:40.057Z,19.30
2018-11-02T20:22:08.456Z,19.20
2018-11-02T20:24:36.421Z,19.20
2018-11-02T20:27:04.306Z,19.20
2018-11-02T20:29:32.197Z,19.20
2018-11-02T20:32:00.274Z,19.20
2018-11-02T20:34:28.787Z,19.10
2018-11-02T20:36:56.665Z,19.10
2018-11-02T20:39:24.575Z,19.10
2018-11-02T20:41:52.573Z,19.10
2018-11-02T20:44:21.444Z,19.10
2018-11-02T20:46:49.328Z,19.10
2018-11-02T20:49:17.307Z,19.10
2018-11-02T20:51:47.279Z,19.10
2018-11-02T20:54:16.351Z,19.20
2018-11-02T20:56:44.895Z,19.20
2018-11-02T20:59:12.748Z,19.10
2018-11-02T21:01:40.781Z,19.10
2018-11-02T21:04:08.691Z,19.10
2018-11-02T21:06:36.712Z,19.10
2018-11-02T21:09:07.909Z,19.10
2018-11-02T21:11:35.708Z,19.20
2018-11-02T21:14:04.493Z,19.10
2018-11-02T21:16:32.407Z,19.10
2018-11-02T21:19:00.281Z,19.10
2018-11-02T21:21:28.121Z,19.10
2018-11-02T21:23:57.036Z,19.10
2018-11-02T21:26:25.703Z,19.10
2018-11-02T21:28:53.739Z,19.10
2018-11-02T21:31:21.624Z,19.10
2018-11-02T21:33:49.488Z,19.10
2018-11-02T21:36:17.280Z,19.10
2018-11-02T21:38:45.861Z,19.10
2018-11-02T21:41:14.733Z,19.10
2018-11-02T21:43:42.640Z,19.20
2018-11-02T21:46:11.051Z,19.20
2018-11-02T21:48:38.915Z,19.20
2018-11-02T21:51:06.833Z,19.20
2018-11-02T21:53:34.727Z,19.10
2018-11-02T21:56:02.588Z,19.10
2018-11-02T21:58:31.347Z,19.20
2018-11-02T22:00:59.191Z,19.20
2018-11-02T22:03:27.417Z,19.30
2018-11-02T22:05:56.296Z,19.30
2018-11-02T22:08:24.128Z,19.40
2018-11-02T22:10:51.967Z,19.40
2018-11-02T22:13:19.822Z,19.40
2018-11-02T22:15:47.656Z,19.30
2018-11-02T22:18:15.547Z,19.30
2018-11-02T22:20:44.321Z,19.30
2018-11-02T22:23:12.195Z,19.30
2018-11-02T22:25:40.083Z,19.30
2018-11-02T22:28:07.923Z,19.30
2018-11-02T22:30:35.743Z,19.30
2018-11-02T22:33:03.713Z,19.30
2018-11-02T22:35:31.546Z,19.30
2018-11-02T22:37:59.390Z,19.30
2018-11-02T22:40:27.307Z,19.30
2018-11-02T22:42:56.107Z,19.30
2018-11-02T22:45:24.086Z,19.30
2018-11-02T22:47:57.454Z,19.30
2018-11-02T22:50:25.260Z,19.20
2018-11-02T22:52:53.121Z,19.20
2018-11-02T22:55:21.958Z,19.20
2018-11-02T22:57:49.792Z,19.20
2018-11-02T23:00:19.450Z,19.20
2018-11-02T23:02:47.917Z,19.20
2018-11-02T23:05:15.790Z,19.20
2018-11-02T23:07:45.130Z,19.20
2018-11-02T23:10:14.485Z,19.20
2018-11-02T23:12:42.710Z,19.20
2018-11-02T23:15:12.124Z,19.20
2018-11-02T23:17:41.002Z,19.20
2018-11-02T23:20:09.956Z,19.20
2018-11-02T23:22:37.810Z,19.20
2018-11-02T23:25:07.091Z,19.20
2018-11-02T23:27:35.941Z,19.20
2018-11-02T23:30:05.897Z,19.20
2018-11-02T23:32:33.704Z,19.20
2018-11-02T23:35:02.561Z,19.20
2018-11-02T23:37:31.327Z,19.20
2018-11-02T23:40:00.065Z,19.20
2018-11-02T23:42:29.173Z,19.20
2018-11-02T23:44:57.090Z,19.10
2018-11-02T23:47:25.998Z,19.20
2018-11-02T23:49:54.235Z,19.20
2018-11-02T23:52:22.225Z,19.20
2018-11-02T23:54:50.082Z,19.20
2018-11-02T23:57:19.053Z,19.20
2018-11-02T23:59:47.948Z,19.10
